sensor_id;sensor_type;location;lat;lon;timestamp;temperature;humidity
13960;DHT22;7052;51.050;3.716;2023-04-05T00:00:11;5.50;99.90
13960;DHT22;7052;51.050;3.716;2023-04-05T00:02:40;5.50;99.90
13960;DHT22;7052;51.050;3.716;2023-04-05T00:05:08;5.50;99.90
13960;DHT22;7052;51.050;3.716;2023-04-05T00:07:38;5.50;99.90
13960;DHT22;7052;51.050;3.716;2023-04-05T00:10:12;5.50;99.90
13960;DHT22;7052;51.050;3.716;2023-04-05T00:12:39;5.40;99.90
13960;DHT22;7052;51.050;3.716;2023-04-05T00:15:10;5.50;99.90
13960;DHT22;7052;51.050;3.716;2023-04-05T00:17:37;5.40;99.90
13960;DHT22;7052;51.050;3.716;2023-04-05T00:20:05;5.40;99.90
13960;DHT22;7052;51.050;3.716;2023-04-05T00:22:32;5.40;99.90
13960;DHT22;7052;51.050;3.716;2023-04-05T00:25:02;5.40;99.90
13960;DHT22;7052;51.050;3.716;2023-04-05T00:27:29;5.40;99.90
13960;DHT22;7052;51.050;3.716;2023-04-05T00:29:56;5.40;99.90
13960;DHT22;7052;51.050;3.716;2023-04-05T00:32:22;5.40;99.90
13960;DHT22;7052;51.050;3.716;2023-04-05T00:34:51;5.40;99.90
13960;DHT22;7052;51.050;3.716;2023-04-05T00:37:18;5.40;99.90
13960;DHT22;7052;51.050;3.716;2023-04-05T00:39:45;5.40;99.90
13960;DHT22;7052;51.050;3.716;2023-04-05T00:42:15;5.40;99.90
13960;DHT22;7052;51.050;3.716;2023-04-05T00:44:42;5.50;99.90
13960;DHT22;7052;51.050;3.716;2023-04-05T00:47:09;5.50;99.90
13960;DHT22;7052;51.050;3.716;2023-04-05T00:49:37;5.50;99.90
13960;DHT22;7052;51.050;3.716;2023-04-05T00:52:04;5.50;99.90
13960;DHT22;7052;51.050;3.716;2023-04-05T00:54:33;5.50;99.90
13960;DHT22;7052;51.050;3.716;2023-04-05T00:57:03;5.50;99.90
13960;DHT22;7052;51.050;3.716;2023-04-05T00:59:33;5.50;99.90
13960;DHT22;7052;51.050;3.716;2023-04-05T01:02:04;5.50;99.90
13960;DHT22;7052;51.050;3.716;2023-04-05T01:04:32;5.50;99.90
13960;DHT22;7052;51.050;3.716;2023-04-05T01:07:07;5.50;99.90
13960;DHT22;7052;51.050;3.716;2023-04-05T01:09:44;5.50;99.90
13960;DHT22;7052;51.050;3.716;2023-04-05T01:12:16;5.50;99.90
13960;DHT22;7052;51.050;3.716;2023-04-05T01:14:49;5.50;99.90
13960;DHT22;7052;51.050;3.716;2023-04-05T01:17:17;5.50;99.90
13960;DHT22;7052;51.050;3.716;2023-04-05T01:19:47;5.50;99.90
13960;DHT22;7052;51.050;3.716;2023-04-05T01:25:26;5.50;99.90
13960;DHT22;7052;51.050;3.716;2023-04-05T01:28:17;5.50;99.90
13960;DHT22;7052;51.050;3.716;2023-04-05T01:30:58;5.50;99.90
13960;DHT22;7052;51.050;3.716;2023-04-05T01:33:34;5.50;99.90
13960;DHT22;7052;51.050;3.716;2023-04-05T01:36:10;5.50;99.90
13960;DHT22;7052;51.050;3.716;2023-04-05T01:38:39;5.50;99.90
13960;DHT22;7052;51.050;3.716;2023-04-05T01:41:06;5.50;99.90
13960;DHT22;7052;51.050;3.716;2023-04-05T01:43:34;5.50;99.90
13960;DHT22;7052;51.050;3.716;2023-04-05T01:46:02;5.50;99.90
13960;DHT22;7052;51.050;3.716;2023-04-05T01:48:31;5.50;99.90
13960;DHT22;7052;51.050;3.716;2023-04-05T01:50:58;5.50;99.90
13960;DHT22;7052;51.050;3.716;2023-04-05T01:53:25;5.50;99.90
13960;DHT22;7052;51.050;3.716;2023-04-05T01:55:52;5.50;99.90
13960;DHT22;7052;51.050;3.716;2023-04-05T01:58:19;5.50;99.90
13960;DHT22;7052;51.050;3.716;2023-04-05T02:00:46;5.50;99.90
13960;DHT22;7052;51.050;3.716;2023-04-05T02:03:15;5.50;99.90
13960;DHT22;7052;51.050;3.716;2023-04-05T02:05:44;5.50;99.90
13960;DHT22;7052;51.050;3.716;2023-04-05T02:08:10;5.50;99.90
13960;DHT22;7052;51.050;3.716;2023-04-05T02:10:38;5.40;99.90
13960;DHT22;7052;51.050;3.716;2023-04-05T02:13:07;5.40;99.90
13960;DHT22;7052;51.050;3.716;2023-04-05T02:15:36;5.40;99.90
13960;DHT22;7052;51.050;3.716;2023-04-05T02:18:03;5.40;99.90
13960;DHT22;7052;51.050;3.716;2023-04-05T02:20:31;5.30;99.90
13960;DHT22;7052;51.050;3.716;2023-04-05T02:22:59;5.30;99.90
13960;DHT22;7052;51.050;3.716;2023-04-05T02:25:29;5.20;99.90
13960;DHT22;7052;51.050;3.716;2023-04-05T02:27:57;5.20;99.90
13960;DHT22;7052;51.050;3.716;2023-04-05T02:30:24;5.20;99.90
13960;DHT22;7052;51.050;3.716;2023-04-05T02:32:54;5.20;99.90
13960;DHT22;7052;51.050;3.716;2023-04-05T02:35:23;5.20;99.90
13960;DHT22;7052;51.050;3.716;2023-04-05T02:37:57;5.20;99.90
13960;DHT22;7052;51.050;3.716;2023-04-05T02:40:24;5.20;99.90
13960;DHT22;7052;51.050;3.716;2023-04-05T02:42:51;5.20;99.90
13960;DHT22;7052;51.050;3.716;2023-04-05T02:45:18;5.20;99.90
13960;DHT22;7052;51.050;3.716;2023-04-05T02:47:47;5.20;99.90
13960;DHT22;7052;51.050;3.716;2023-04-05T02:50:14;5.20;99.90
13960;DHT22;7052;51.050;3.716;2023-04-05T02:52:44;5.20;99.90
13960;DHT22;7052;51.050;3.716;2023-04-05T02:55:15;5.20;99.90
13960;DHT22;7052;51.050;3.716;2023-04-05T02:57:43;5.20;99.90
13960;DHT22;7052;51.050;3.716;2023-04-05T03:00:11;5.20;99.90
13960;DHT22;7052;51.050;3.716;2023-04-05T03:02:38;5.20;99.90
13960;DHT22;7052;51.050;3.716;2023-04-05T03:05:08;5.10;99.90
13960;DHT22;7052;51.050;3.716;2023-04-05T03:07:35;5.10;99.90
13960;DHT22;7052;51.050;3.716;2023-04-05T03:10:03;5.10;99.90
13960;DHT22;7052;51.050;3.716;2023-04-05T03:12:33;5.00;99.90
13960;DHT22;7052;51.050;3.716;2023-04-05T03:15:00;5.10;99.90
13960;DHT22;7052;51.050;3.716;2023-04-05T03:17:27;5.00;99.90
13960;DHT22;7052;51.050;3.716;2023-04-05T03:19:55;5.00;99.90
13960;DHT22;7052;51.050;3.716;2023-04-05T03:22:25;4.90;99.90
13960;DHT22;7052;51.050;3.716;2023-04-05T03:24:52;4.90;99.90
13960;DHT22;7052;51.050;3.716;2023-04-05T03:27:19;4.90;99.90
13960;DHT22;7052;51.050;3.716;2023-04-05T03:29:48;4.90;99.90
13960;DHT22;7052;51.050;3.716;2023-04-05T03:32:15;4.80;99.90
13960;DHT22;7052;51.050;3.716;2023-04-05T03:34:42;4.80;99.90
13960;DHT22;7052;51.050;3.716;2023-04-05T03:37:09;4.80;99.90
13960;DHT22;7052;51.050;3.716;2023-04-05T03:39:38;4.80;99.90
13960;DHT22;7052;51.050;3.716;2023-04-05T03:42:07;4.80;99.90
13960;DHT22;7052;51.050;3.716;2023-04-05T03:44:34;4.80;99.90
13960;DHT22;7052;51.050;3.716;2023-04-05T03:47:02;4.70;99.90
13960;DHT22;7052;51.050;3.716;2023-04-05T03:49:30;4.70;99.90
13960;DHT22;7052;51.050;3.716;2023-04-05T03:51:57;4.70;99.90
13960;DHT22;7052;51.050;3.716;2023-04-05T03:54:23;4.60;99.90
13960;DHT22;7052;51.050;3.716;2023-04-05T03:56:50;4.70;99.90
13960;DHT22;7052;51.050;3.716;2023-04-05T03:59:17;4.60;99.90
13960;DHT22;7052;51.050;3.716;2023-04-05T04:01:45;4.60;99.90
13960;DHT22;7052;51.050;3.716;2023-04-05T04:04:13;4.50;99.90
13960;DHT22;7052;51.050;3.716;2023-04-05T04:06:41;4.50;99.90
13960;DHT22;7052;51.050;3.716;2023-04-05T04:09:08;4.50;99.90
13960;DHT22;7052;51.050;3.716;2023-04-05T04:11:36;4.50;99.90
13960;DHT22;7052;51.050;3.716;2023-04-05T04:14:05;4.50;99.90
13960;DHT22;7052;51.050;3.716;2023-04-05T04:16:32;4.50;99.90
13960;DHT22;7052;51.050;3.716;2023-04-05T04:18:59;4.50;99.90
13960;DHT22;7052;51.050;3.716;2023-04-05T04:21:28;4.50;99.90
13960;DHT22;7052;51.050;3.716;2023-04-05T04:23:57;4.60;99.90
13960;DHT22;7052;51.050;3.716;2023-04-05T04:26:28;4.50;99.90
13960;DHT22;7052;51.050;3.716;2023-04-05T04:28:55;4.50;99.90
13960;DHT22;7052;51.050;3.716;2023-04-05T04:31:23;4.50;99.90
13960;DHT22;7052;51.050;3.716;2023-04-05T04:33:50;4.50;99.90
13960;DHT22;7052;51.050;3.716;2023-04-05T04:36:17;4.50;99.90
13960;DHT22;7052;51.050;3.716;2023-04-05T04:38:53;4.50;99.90
13960;DHT22;7052;51.050;3.716;2023-04-05T04:41:20;4.50;99.90
13960;DHT22;7052;51.050;3.716;2023-04-05T04:43:47;4.50;99.90
13960;DHT22;7052;51.050;3.716;2023-04-05T04:46:15;4.50;99.90
13960;DHT22;7052;51.050;3.716;2023-04-05T04:48:43;4.50;99.90
13960;DHT22;7052;51.050;3.716;2023-04-05T04:51:11;4.50;99.90
13960;DHT22;7052;51.050;3.716;2023-04-05T04:53:38;4.50;99.90
13960;DHT22;7052;51.050;3.716;2023-04-05T04:56:10;4.40;99.90
13960;DHT22;7052;51.050;3.716;2023-04-05T04:58:38;4.40;99.90
13960;DHT22;7052;51.050;3.716;2023-04-05T05:01:06;4.40;99.90
13960;DHT22;7052;51.050;3.716;2023-04-05T05:03:34;4.40;99.90
13960;DHT22;7052;51.050;3.716;2023-04-05T05:06:07;4.40;99.90
13960;DHT22;7052;51.050;3.716;2023-04-05T05:08:34;4.40;99.90
13960;DHT22;7052;51.050;3.716;2023-04-05T05:11:05;4.40;99.90
13960;DHT22;7052;51.050;3.716;2023-04-05T05:13:35;4.30;99.90
13960;DHT22;7052;51.050;3.716;2023-04-05T05:16:03;4.30;99.90
13960;DHT22;7052;51.050;3.716;2023-04-05T05:18:31;4.30;99.90
13960;DHT22;7052;51.050;3.716;2023-04-05T05:21:00;4.20;99.90
13960;DHT22;7052;51.050;3.716;2023-04-05T05:23:30;4.20;99.90
13960;DHT22;7052;51.050;3.716;2023-04-05T05:25:57;4.20;99.90
13960;DHT22;7052;51.050;3.716;2023-04-05T05:28:26;4.20;99.90
13960;DHT22;7052;51.050;3.716;2023-04-05T05:30:57;4.20;99.90
13960;DHT22;7052;51.050;3.716;2023-04-05T05:33:25;4.20;99.90
13960;DHT22;7052;51.050;3.716;2023-04-05T05:35:52;4.20;99.90
13960;DHT22;7052;51.050;3.716;2023-04-05T05:38:19;4.20;99.90
13960;DHT22;7052;51.050;3.716;2023-04-05T05:40:46;4.30;99.90
13960;DHT22;7052;51.050;3.716;2023-04-05T05:43:13;4.30;99.90
13960;DHT22;7052;51.050;3.716;2023-04-05T05:45:40;4.40;99.90
13960;DHT22;7052;51.050;3.716;2023-04-05T05:48:14;4.30;99.90
13960;DHT22;7052;51.050;3.716;2023-04-05T05:50:41;4.40;99.90
13960;DHT22;7052;51.050;3.716;2023-04-05T05:53:07;4.40;99.90
13960;DHT22;7052;51.050;3.716;2023-04-05T05:55:35;4.50;99.90
13960;DHT22;7052;51.050;3.716;2023-04-05T05:58:03;4.50;99.90
13960;DHT22;7052;51.050;3.716;2023-04-05T06:00:37;4.60;99.90
13960;DHT22;7052;51.050;3.716;2023-04-05T06:03:04;4.60;99.90
13960;DHT22;7052;51.050;3.716;2023-04-05T06:05:35;4.70;99.90
13960;DHT22;7052;51.050;3.716;2023-04-05T06:08:01;4.80;99.90
13960;DHT22;7052;51.050;3.716;2023-04-05T06:10:30;4.80;99.90
13960;DHT22;7052;51.050;3.716;2023-04-05T06:12:57;4.90;99.90
13960;DHT22;7052;51.050;3.716;2023-04-05T06:15:25;4.90;99.90
13960;DHT22;7052;51.050;3.716;2023-04-05T06:17:52;4.90;99.90
13960;DHT22;7052;51.050;3.716;2023-04-05T06:20:19;5.00;99.90
13960;DHT22;7052;51.050;3.716;2023-04-05T06:22:47;5.10;99.90
13960;DHT22;7052;51.050;3.716;2023-04-05T06:25:14;5.20;99.90
13960;DHT22;7052;51.050;3.716;2023-04-05T06:27:41;5.30;99.90
13960;DHT22;7052;51.050;3.716;2023-04-05T06:30:08;5.30;99.90
13960;DHT22;7052;51.050;3.716;2023-04-05T06:32:37;5.60;99.90
13960;DHT22;7052;51.050;3.716;2023-04-05T06:35:05;6.00;99.90
13960;DHT22;7052;51.050;3.716;2023-04-05T06:37:33;6.50;99.90
13960;DHT22;7052;51.050;3.716;2023-04-05T06:40:05;7.00;99.90
13960;DHT22;7052;51.050;3.716;2023-04-05T06:42:32;7.40;99.90
13960;DHT22;7052;51.050;3.716;2023-04-05T06:44:59;7.80;99.90
13960;DHT22;7052;51.050;3.716;2023-04-05T06:47:28;8.00;99.90
13960;DHT22;7052;51.050;3.716;2023-04-05T06:50:01;8.20;99.90
13960;DHT22;7052;51.050;3.716;2023-04-05T06:52:29;8.40;98.80
13960;DHT22;7052;51.050;3.716;2023-04-05T06:54:56;8.70;97.70
13960;DHT22;7052;51.050;3.716;2023-04-05T06:57:27;8.90;96.30
13960;DHT22;7052;51.050;3.716;2023-04-05T06:59:58;9.10;95.40
13960;DHT22;7052;51.050;3.716;2023-04-05T07:02:35;9.30;94.40
13960;DHT22;7052;51.050;3.716;2023-04-05T07:05:03;9.50;92.90
13960;DHT22;7052;51.050;3.716;2023-04-05T07:07:39;9.60;92.30
13960;DHT22;7052;51.050;3.716;2023-04-05T07:10:10;9.80;91.00
13960;DHT22;7052;51.050;3.716;2023-04-05T07:12:39;9.90;89.40
13960;DHT22;7052;51.050;3.716;2023-04-05T07:15:08;9.90;86.40
13960;DHT22;7052;51.050;3.716;2023-04-05T07:17:35;9.90;83.20
13960;DHT22;7052;51.050;3.716;2023-04-05T07:20:05;9.70;81.30
13960;DHT22;7052;51.050;3.716;2023-04-05T07:22:34;9.40;81.30
13960;DHT22;7052;51.050;3.716;2023-04-05T07:25:01;9.20;82.10
13960;DHT22;7052;51.050;3.716;2023-04-05T07:27:30;9.10;82.10
13960;DHT22;7052;51.050;3.716;2023-04-05T07:29:59;8.90;82.00
13960;DHT22;7052;51.050;3.716;2023-04-05T07:32:26;8.80;82.40
13960;DHT22;7052;51.050;3.716;2023-04-05T07:34:53;8.80;80.70
13960;DHT22;7052;51.050;3.716;2023-04-05T07:37:21;8.70;80.20
13960;DHT22;7052;51.050;3.716;2023-04-05T07:39:48;8.70;80.30
13960;DHT22;7052;51.050;3.716;2023-04-05T07:42:17;8.70;80.10
13960;DHT22;7052;51.050;3.716;2023-04-05T07:44:45;8.70;79.60
13960;DHT22;7052;51.050;3.716;2023-04-05T07:47:16;8.70;78.40
13960;DHT22;7052;51.050;3.716;2023-04-05T07:49:43;8.70;74.60
13960;DHT22;7052;51.050;3.716;2023-04-05T07:52:10;8.70;72.90
13960;DHT22;7052;51.050;3.716;2023-04-05T07:54:38;8.80;71.90
13960;DHT22;7052;51.050;3.716;2023-04-05T07:57:08;8.90;71.80
13960;DHT22;7052;51.050;3.716;2023-04-05T07:59:35;8.90;71.70
13960;DHT22;7052;51.050;3.716;2023-04-05T08:02:02;9.00;71.10
13960;DHT22;7052;51.050;3.716;2023-04-05T08:04:34;9.10;67.30
13960;DHT22;7052;51.050;3.716;2023-04-05T08:07:06;9.10;66.00
13960;DHT22;7052;51.050;3.716;2023-04-05T08:09:34;9.20;63.00
13960;DHT22;7052;51.050;3.716;2023-04-05T08:12:04;9.20;59.80
13960;DHT22;7052;51.050;3.716;2023-04-05T08:14:31;9.30;58.80
13960;DHT22;7052;51.050;3.716;2023-04-05T08:16:59;9.30;57.90
13960;DHT22;7052;51.050;3.716;2023-04-05T08:19:27;9.40;57.40
13960;DHT22;7052;51.050;3.716;2023-04-05T08:22:00;9.50;57.20
13960;DHT22;7052;51.050;3.716;2023-04-05T08:24:28;9.50;57.10
13960;DHT22;7052;51.050;3.716;2023-04-05T08:26:54;9.60;56.30
13960;DHT22;7052;51.050;3.716;2023-04-05T08:29:23;9.70;55.40
13960;DHT22;7052;51.050;3.716;2023-04-05T08:31:50;9.80;53.50
13960;DHT22;7052;51.050;3.716;2023-04-05T08:34:16;9.80;52.50
13960;DHT22;7052;51.050;3.716;2023-04-05T08:36:46;10.00;51.40
13960;DHT22;7052;51.050;3.716;2023-04-05T08:39:19;10.00;50.50
13960;DHT22;7052;51.050;3.716;2023-04-05T08:41:54;10.10;49.50
13960;DHT22;7052;51.050;3.716;2023-04-05T08:44:30;10.10;49.10
13960;DHT22;7052;51.050;3.716;2023-04-05T08:46:57;10.20;48.00
13960;DHT22;7052;51.050;3.716;2023-04-05T08:49:25;10.20;47.10
13960;DHT22;7052;51.050;3.716;2023-04-05T08:51:52;10.20;47.10
13960;DHT22;7052;51.050;3.716;2023-04-05T08:54:21;10.30;46.40
13960;DHT22;7052;51.050;3.716;2023-04-05T08:56:49;10.40;46.20
13960;DHT22;7052;51.050;3.716;2023-04-05T08:59:19;10.40;46.70
13960;DHT22;7052;51.050;3.716;2023-04-05T09:01:49;10.50;46.60
13960;DHT22;7052;51.050;3.716;2023-04-05T09:04:21;10.50;45.40
13960;DHT22;7052;51.050;3.716;2023-04-05T09:06:49;10.60;44.90
13960;DHT22;7052;51.050;3.716;2023-04-05T09:09:19;10.70;45.40
13960;DHT22;7052;51.050;3.716;2023-04-05T09:11:48;10.80;44.90
13960;DHT22;7052;51.050;3.716;2023-04-05T09:14:16;10.90;44.00
13960;DHT22;7052;51.050;3.716;2023-04-05T09:16:45;10.90;43.10
13960;DHT22;7052;51.050;3.716;2023-04-05T09:19:12;10.80;42.80
13960;DHT22;7052;51.050;3.716;2023-04-05T09:21:59;10.90;42.70
13960;DHT22;7052;51.050;3.716;2023-04-05T09:24:33;10.90;42.80
13960;DHT22;7052;51.050;3.716;2023-04-05T09:27:07;10.90;42.60
13960;DHT22;7052;51.050;3.716;2023-04-05T09:29:39;11.00;42.50
13960;DHT22;7052;51.050;3.716;2023-04-05T09:32:08;11.00;42.10
13960;DHT22;7052;51.050;3.716;2023-04-05T09:34:36;11.00;42.20
13960;DHT22;7052;51.050;3.716;2023-04-05T09:37:11;11.00;42.10
13960;DHT22;7052;51.050;3.716;2023-04-05T09:39:38;11.10;42.40
13960;DHT22;7052;51.050;3.716;2023-04-05T09:42:10;11.30;42.30
13960;DHT22;7052;51.050;3.716;2023-04-05T09:44:54;11.30;41.60
13960;DHT22;7052;51.050;3.716;2023-04-05T09:47:25;11.30;41.50
13960;DHT22;7052;51.050;3.716;2023-04-05T09:49:55;11.30;41.40
13960;DHT22;7052;51.050;3.716;2023-04-05T09:52:32;11.30;40.90
13960;DHT22;7052;51.050;3.716;2023-04-05T09:55:02;11.30;41.20
13960;DHT22;7052;51.050;3.716;2023-04-05T09:57:36;11.40;41.50
13960;DHT22;7052;51.050;3.716;2023-04-05T10:00:15;11.40;41.30
13960;DHT22;7052;51.050;3.716;2023-04-05T10:02:43;11.50;41.30
13960;DHT22;7052;51.050;3.716;2023-04-05T10:05:12;11.70;40.80
13960;DHT22;7052;51.050;3.716;2023-04-05T10:07:40;11.80;40.40
13960;DHT22;7052;51.050;3.716;2023-04-05T10:10:08;11.90;39.90
13960;DHT22;7052;51.050;3.716;2023-04-05T10:12:39;11.90;39.50
13960;DHT22;7052;51.050;3.716;2023-04-05T10:15:10;11.90;40.00
13960;DHT22;7052;51.050;3.716;2023-04-05T10:17:45;12.00;40.10
13960;DHT22;7052;51.050;3.716;2023-04-05T10:20:19;11.90;39.30
13960;DHT22;7052;51.050;3.716;2023-04-05T10:22:59;11.80;39.30
13960;DHT22;7052;51.050;3.716;2023-04-05T10:25:34;11.90;39.80
13960;DHT22;7052;51.050;3.716;2023-04-05T10:28:10;12.10;40.00
13960;DHT22;7052;51.050;3.716;2023-04-05T10:30:43;12.20;39.80
13960;DHT22;7052;51.050;3.716;2023-04-05T10:33:29;12.40;39.00
13960;DHT22;7052;51.050;3.716;2023-04-05T10:36:06;12.40;38.60
13960;DHT22;7052;51.050;3.716;2023-04-05T10:38:45;12.50;38.50
13960;DHT22;7052;51.050;3.716;2023-04-05T10:41:14;12.50;38.30
13960;DHT22;7052;51.050;3.716;2023-04-05T10:43:44;12.60;37.80
13960;DHT22;7052;51.050;3.716;2023-04-05T10:46:13;12.50;37.50
13960;DHT22;7052;51.050;3.716;2023-04-05T10:48:51;12.60;37.70
13960;DHT22;7052;51.050;3.716;2023-04-05T10:51:23;12.70;37.70
13960;DHT22;7052;51.050;3.716;2023-04-05T10:53:55;12.80;37.80
13960;DHT22;7052;51.050;3.716;2023-04-05T10:56:23;12.80;37.90
13960;DHT22;7052;51.050;3.716;2023-04-05T10:58:54;12.90;37.20
13960;DHT22;7052;51.050;3.716;2023-04-05T11:01:22;12.90;37.50
13960;DHT22;7052;51.050;3.716;2023-04-05T11:03:50;12.90;37.50
13960;DHT22;7052;51.050;3.716;2023-04-05T11:06:20;13.10;37.60
13960;DHT22;7052;51.050;3.716;2023-04-05T11:08:48;13.20;36.90
13960;DHT22;7052;51.050;3.716;2023-04-05T11:11:17;13.20;37.10
13960;DHT22;7052;51.050;3.716;2023-04-05T11:13:48;13.20;37.30
13960;DHT22;7052;51.050;3.716;2023-04-05T11:16:18;13.20;37.70
13960;DHT22;7052;51.050;3.716;2023-04-05T11:18:46;13.20;37.80
13960;DHT22;7052;51.050;3.716;2023-04-05T11:21:20;13.20;37.80
13960;DHT22;7052;51.050;3.716;2023-04-05T11:24:03;13.30;37.50
13960;DHT22;7052;51.050;3.716;2023-04-05T11:26:52;13.30;37.60
13960;DHT22;7052;51.050;3.716;2023-04-05T11:29:44;13.40;36.30
13960;DHT22;7052;51.050;3.716;2023-04-05T11:32:16;13.40;35.90
13960;DHT22;7052;51.050;3.716;2023-04-05T11:34:44;13.40;35.80
13960;DHT22;7052;51.050;3.716;2023-04-05T11:37:10;13.30;35.30
13960;DHT22;7052;51.050;3.716;2023-04-05T11:39:41;13.30;36.10
13960;DHT22;7052;51.050;3.716;2023-04-05T11:42:11;13.40;36.20
13960;DHT22;7052;51.050;3.716;2023-04-05T11:45:02;13.50;36.30
13960;DHT22;7052;51.050;3.716;2023-04-05T11:47:30;13.50;36.30
13960;DHT22;7052;51.050;3.716;2023-04-05T11:49:59;13.50;36.10
13960;DHT22;7052;51.050;3.716;2023-04-05T11:52:26;13.50;36.10
13960;DHT22;7052;51.050;3.716;2023-04-05T11:54:53;13.60;35.50
13960;DHT22;7052;51.050;3.716;2023-04-05T11:57:21;13.50;35.70
13960;DHT22;7052;51.050;3.716;2023-04-05T11:59:53;13.50;35.90
13960;DHT22;7052;51.050;3.716;2023-04-05T12:02:23;13.50;35.90
13960;DHT22;7052;51.050;3.716;2023-04-05T12:04:56;13.60;36.10
13960;DHT22;7052;51.050;3.716;2023-04-05T12:07:27;13.60;36.20
13960;DHT22;7052;51.050;3.716;2023-04-05T12:10:04;13.70;36.20
13960;DHT22;7052;51.050;3.716;2023-04-05T12:12:34;13.80;36.70
13960;DHT22;7052;51.050;3.716;2023-04-05T12:15:03;13.90;36.40
13960;DHT22;7052;51.050;3.716;2023-04-05T12:17:44;13.90;35.90
13960;DHT22;7052;51.050;3.716;2023-04-05T12:20:16;13.80;36.40
13960;DHT22;7052;51.050;3.716;2023-04-05T12:22:46;13.90;36.80
13960;DHT22;7052;51.050;3.716;2023-04-05T12:25:15;14.00;36.40
13960;DHT22;7052;51.050;3.716;2023-04-05T12:27:43;13.90;35.70
13960;DHT22;7052;51.050;3.716;2023-04-05T12:30:15;13.90;36.30
13960;DHT22;7052;51.050;3.716;2023-04-05T12:32:44;14.00;35.90
13960;DHT22;7052;51.050;3.716;2023-04-05T12:35:23;13.90;35.20
13960;DHT22;7052;51.050;3.716;2023-04-05T12:37:57;14.00;35.20
13960;DHT22;7052;51.050;3.716;2023-04-05T12:40:25;13.90;35.30
13960;DHT22;7052;51.050;3.716;2023-04-05T12:43:01;13.90;35.50
13960;DHT22;7052;51.050;3.716;2023-04-05T12:45:29;13.90;34.80
13960;DHT22;7052;51.050;3.716;2023-04-05T12:48:07;14.10;34.80
13960;DHT22;7052;51.050;3.716;2023-04-05T12:50:41;14.20;34.30
13960;DHT22;7052;51.050;3.716;2023-04-05T12:53:08;14.30;33.90
13960;DHT22;7052;51.050;3.716;2023-04-05T12:55:46;14.40;33.80
13960;DHT22;7052;51.050;3.716;2023-04-05T12:58:20;14.50;34.00
13960;DHT22;7052;51.050;3.716;2023-04-05T13:00:56;14.60;33.60
13960;DHT22;7052;51.050;3.716;2023-04-05T13:03:25;14.70;32.70
13960;DHT22;7052;51.050;3.716;2023-04-05T13:05:53;14.70;32.50
13960;DHT22;7052;51.050;3.716;2023-04-05T13:08:21;14.50;32.30
13960;DHT22;7052;51.050;3.716;2023-04-05T13:10:52;14.60;32.60
13960;DHT22;7052;51.050;3.716;2023-04-05T13:13:22;14.70;32.70
13960;DHT22;7052;51.050;3.716;2023-04-05T13:15:55;14.80;32.00
13960;DHT22;7052;51.050;3.716;2023-04-05T13:18:22;14.80;31.80
13960;DHT22;7052;51.050;3.716;2023-04-05T13:20:49;14.80;32.30
13960;DHT22;7052;51.050;3.716;2023-04-05T13:23:18;14.80;32.70
13960;DHT22;7052;51.050;3.716;2023-04-05T13:25:45;14.80;32.70
13960;DHT22;7052;51.050;3.716;2023-04-05T13:28:13;14.80;32.90
13960;DHT22;7052;51.050;3.716;2023-04-05T13:30:40;14.90;33.00
13960;DHT22;7052;51.050;3.716;2023-04-05T13:33:08;15.00;33.10
13960;DHT22;7052;51.050;3.716;2023-04-05T13:35:34;15.10;33.20
13960;DHT22;7052;51.050;3.716;2023-04-05T13:38:02;15.10;32.70
13960;DHT22;7052;51.050;3.716;2023-04-05T13:40:32;15.10;33.20
13960;DHT22;7052;51.050;3.716;2023-04-05T13:43:04;15.10;33.10
13960;DHT22;7052;51.050;3.716;2023-04-05T13:45:54;15.10;33.50
13960;DHT22;7052;51.050;3.716;2023-04-05T13:48:25;15.10;33.80
13960;DHT22;7052;51.050;3.716;2023-04-05T13:50:52;15.10;33.60
13960;DHT22;7052;51.050;3.716;2023-04-05T13:53:20;15.10;34.20
13960;DHT22;7052;51.050;3.716;2023-04-05T13:55:51;15.30;34.40
13960;DHT22;7052;51.050;3.716;2023-04-05T13:58:19;15.30;34.00
13960;DHT22;7052;51.050;3.716;2023-04-05T14:00:46;15.40;33.60
13960;DHT22;7052;51.050;3.716;2023-04-05T14:03:13;15.40;33.30
13960;DHT22;7052;51.050;3.716;2023-04-05T14:05:47;15.40;34.00
13960;DHT22;7052;51.050;3.716;2023-04-05T14:08:21;15.40;33.80
13960;DHT22;7052;51.050;3.716;2023-04-05T14:10:51;15.40;33.10
13960;DHT22;7052;51.050;3.716;2023-04-05T14:13:18;15.40;32.80
13960;DHT22;7052;51.050;3.716;2023-04-05T14:15:49;15.30;32.40
13960;DHT22;7052;51.050;3.716;2023-04-05T14:18:27;15.20;32.40
13960;DHT22;7052;51.050;3.716;2023-04-05T14:20:54;15.20;32.70
13960;DHT22;7052;51.050;3.716;2023-04-05T14:23:23;15.20;32.00
13960;DHT22;7052;51.050;3.716;2023-04-05T14:25:52;15.10;31.50
13960;DHT22;7052;51.050;3.716;2023-04-05T14:28:22;15.10;31.50
13960;DHT22;7052;51.050;3.716;2023-04-05T14:30:52;15.00;31.70
13960;DHT22;7052;51.050;3.716;2023-04-05T14:33:19;15.00;31.90
13960;DHT22;7052;51.050;3.716;2023-04-05T14:35:47;15.00;31.50
13960;DHT22;7052;51.050;3.716;2023-04-05T14:38:13;15.10;31.20
13960;DHT22;7052;51.050;3.716;2023-04-05T14:40:41;15.10;31.40
13960;DHT22;7052;51.050;3.716;2023-04-05T14:43:11;15.10;31.50
13960;DHT22;7052;51.050;3.716;2023-04-05T14:45:39;15.20;32.00
13960;DHT22;7052;51.050;3.716;2023-04-05T14:48:06;15.30;32.00
13960;DHT22;7052;51.050;3.716;2023-04-05T14:50:33;15.20;30.90
13960;DHT22;7052;51.050;3.716;2023-04-05T14:53:09;15.20;31.10
13960;DHT22;7052;51.050;3.716;2023-04-05T14:55:36;15.30;31.50
13960;DHT22;7052;51.050;3.716;2023-04-05T14:58:03;15.20;31.60
13960;DHT22;7052;51.050;3.716;2023-04-05T15:00:33;15.20;31.90
13960;DHT22;7052;51.050;3.716;2023-04-05T15:03:02;15.10;31.50
13960;DHT22;7052;51.050;3.716;2023-04-05T15:05:29;15.10;31.80
13960;DHT22;7052;51.050;3.716;2023-04-05T15:07:57;15.10;32.00
13960;DHT22;7052;51.050;3.716;2023-04-05T15:10:24;15.10;32.30
13960;DHT22;7052;51.050;3.716;2023-04-05T15:12:51;15.10;32.40
13960;DHT22;7052;51.050;3.716;2023-04-05T15:15:19;15.10;32.80
13960;DHT22;7052;51.050;3.716;2023-04-05T15:17:48;15.10;33.20
13960;DHT22;7052;51.050;3.716;2023-04-05T15:20:19;15.10;33.40
13960;DHT22;7052;51.050;3.716;2023-04-05T15:22:47;15.10;33.50
13960;DHT22;7052;51.050;3.716;2023-04-05T15:25:15;15.20;33.90
13960;DHT22;7052;51.050;3.716;2023-04-05T15:27:43;15.10;33.80
13960;DHT22;7052;51.050;3.716;2023-04-05T15:30:11;15.10;34.00
13960;DHT22;7052;51.050;3.716;2023-04-05T15:32:38;15.10;34.10
13960;DHT22;7052;51.050;3.716;2023-04-05T15:35:09;15.00;34.00
13960;DHT22;7052;51.050;3.716;2023-04-05T15:37:39;15.10;34.30
13960;DHT22;7052;51.050;3.716;2023-04-05T15:40:07;15.10;34.40
13960;DHT22;7052;51.050;3.716;2023-04-05T15:42:44;15.10;34.30
13960;DHT22;7052;51.050;3.716;2023-04-05T15:45:13;15.20;34.70
13960;DHT22;7052;51.050;3.716;2023-04-05T15:47:40;15.30;34.50
13960;DHT22;7052;51.050;3.716;2023-04-05T15:50:11;15.30;34.40
13960;DHT22;7052;51.050;3.716;2023-04-05T15:52:49;15.30;34.70
13960;DHT22;7052;51.050;3.716;2023-04-05T15:55:20;15.30;34.80
13960;DHT22;7052;51.050;3.716;2023-04-05T15:57:47;15.20;34.70
13960;DHT22;7052;51.050;3.716;2023-04-05T16:00:20;15.10;34.50
13960;DHT22;7052;51.050;3.716;2023-04-05T16:02:49;15.00;34.70
13960;DHT22;7052;51.050;3.716;2023-04-05T16:05:19;15.00;34.90
13960;DHT22;7052;51.050;3.716;2023-04-05T16:07:46;14.90;34.70
13960;DHT22;7052;51.050;3.716;2023-04-05T16:10:13;14.80;34.90
13960;DHT22;7052;51.050;3.716;2023-04-05T16:12:43;14.80;35.10